< < Back
Terminal Aerodrome Forecast


Current Version              Previous Versions:   1  2  3  4  5  6  7  8  9  

Terminal Aerodrome Forecast

780
FTUS44 KOHX 290600 AAA
TAFBNA
TAF AMD
KBNA 290626Z 2906/3006 16004KT P6SM BKN080 BKN250
     FM291100 16005KT 5SM BR BKN020
     FM291400 20007KT P6SM VCTS BKN050CB BKN120
     FM291900 18010KT P6SM SCT050 BKN100 BKN250=

Latest METAR

772
SAUS70 KWBC 291400 RRM
MTRBNA
METAR KBNA 291353Z 18009KT 10SM BKN021 BKN032 BKN200 23/19 A3019 RMK AO2
SLP216 T02280194


USA.gov is the U.S. government's official web portal to all federal, state and local government web resources and services.